sensor_id;sensor_type;location;lat;lon;timestamp;temperature;humidity
18043;DHT22;9146;48.074;11.968;2023-03-14T00:01:14;9.40;99.90
18043;DHT22;9146;48.074;11.968;2023-03-14T00:03:41;9.40;99.90
18043;DHT22;9146;48.074;11.968;2023-03-14T00:06:09;9.30;99.90
18043;DHT22;9146;48.074;11.968;2023-03-14T00:08:38;9.30;99.90
18043;DHT22;9146;48.074;11.968;2023-03-14T00:11:07;9.20;99.90
18043;DHT22;9146;48.074;11.968;2023-03-14T00:13:34;9.20;99.90
18043;DHT22;9146;48.074;11.968;2023-03-14T00:16:05;9.00;99.90
18043;DHT22;9146;48.074;11.968;2023-03-14T00:18:33;8.90;99.90
18043;DHT22;9146;48.074;11.968;2023-03-14T00:21:01;8.80;99.90
18043;DHT22;9146;48.074;11.968;2023-03-14T00:23:28;8.70;99.90
18043;DHT22;9146;48.074;11.968;2023-03-14T00:25:59;8.60;99.90
18043;DHT22;9146;48.074;11.968;2023-03-14T00:28:27;8.60;99.90
18043;DHT22;9146;48.074;11.968;2023-03-14T00:30:54;8.50;99.90
18043;DHT22;9146;48.074;11.968;2023-03-14T00:33:21;8.50;99.90
18043;DHT22;9146;48.074;11.968;2023-03-14T00:35:55;8.40;99.90
18043;DHT22;9146;48.074;11.968;2023-03-14T00:38:22;8.40;99.90
18043;DHT22;9146;48.074;11.968;2023-03-14T00:40:49;8.30;99.90
18043;DHT22;9146;48.074;11.968;2023-03-14T00:43:19;8.30;99.90
18043;DHT22;9146;48.074;11.968;2023-03-14T00:45:47;8.20;99.90
18043;DHT22;9146;48.074;11.968;2023-03-14T00:48:14;8.10;99.90
18043;DHT22;9146;48.074;11.968;2023-03-14T00:50:41;8.10;99.90
18043;DHT22;9146;48.074;11.968;2023-03-14T00:53:08;8.10;99.90
18043;DHT22;9146;48.074;11.968;2023-03-14T00:55:36;8.20;99.90
18043;DHT22;9146;48.074;11.968;2023-03-14T00:58:03;8.20;99.90
18043;DHT22;9146;48.074;11.968;2023-03-14T01:00:32;8.30;99.90
18043;DHT22;9146;48.074;11.968;2023-03-14T01:03:00;8.40;99.90
18043;DHT22;9146;48.074;11.968;2023-03-14T01:05:27;8.50;99.90
18043;DHT22;9146;48.074;11.968;2023-03-14T01:07:54;8.60;99.90
18043;DHT22;9146;48.074;11.968;2023-03-14T01:10:21;8.70;99.90
18043;DHT22;9146;48.074;11.968;2023-03-14T01:12:49;8.80;99.90
18043;DHT22;9146;48.074;11.968;2023-03-14T01:15:16;8.80;99.90
18043;DHT22;9146;48.074;11.968;2023-03-14T01:17:45;8.80;99.90
18043;DHT22;9146;48.074;11.968;2023-03-14T01:20:14;8.80;99.90
18043;DHT22;9146;48.074;11.968;2023-03-14T01:22:41;8.80;99.90
18043;DHT22;9146;48.074;11.968;2023-03-14T01:25:14;8.80;99.90
18043;DHT22;9146;48.074;11.968;2023-03-14T01:27:41;8.80;99.90
18043;DHT22;9146;48.074;11.968;2023-03-14T01:30:09;8.80;99.90
18043;DHT22;9146;48.074;11.968;2023-03-14T01:32:37;8.80;99.90
18043;DHT22;9146;48.074;11.968;2023-03-14T01:35:06;8.80;99.90
18043;DHT22;9146;48.074;11.968;2023-03-14T01:37:33;8.80;99.90
18043;DHT22;9146;48.074;11.968;2023-03-14T01:40:00;8.80;99.90
18043;DHT22;9146;48.074;11.968;2023-03-14T01:42:29;8.90;99.90
18043;DHT22;9146;48.074;11.968;2023-03-14T01:44:57;8.80;99.90
18043;DHT22;9146;48.074;11.968;2023-03-14T01:47:25;8.70;99.90
18043;DHT22;9146;48.074;11.968;2023-03-14T01:49:55;8.70;99.90
18043;DHT22;9146;48.074;11.968;2023-03-14T01:52:28;8.60;99.90
18043;DHT22;9146;48.074;11.968;2023-03-14T01:55:00;8.50;99.90
18043;DHT22;9146;48.074;11.968;2023-03-14T01:57:31;8.40;99.90
18043;DHT22;9146;48.074;11.968;2023-03-14T02:00:03;8.30;99.90
18043;DHT22;9146;48.074;11.968;2023-03-14T02:02:35;8.30;99.90
18043;DHT22;9146;48.074;11.968;2023-03-14T02:05:03;8.30;99.90
18043;DHT22;9146;48.074;11.968;2023-03-14T02:07:35;8.30;99.90
18043;DHT22;9146;48.074;11.968;2023-03-14T02:10:05;8.30;99.90
18043;DHT22;9146;48.074;11.968;2023-03-14T02:12:34;8.30;99.90
18043;DHT22;9146;48.074;11.968;2023-03-14T02:15:01;8.20;99.90
18043;DHT22;9146;48.074;11.968;2023-03-14T02:17:29;8.20;99.90
18043;DHT22;9146;48.074;11.968;2023-03-14T02:20:06;8.10;99.90
18043;DHT22;9146;48.074;11.968;2023-03-14T02:22:37;8.10;99.90
18043;DHT22;9146;48.074;11.968;2023-03-14T02:25:10;8.10;99.90
18043;DHT22;9146;48.074;11.968;2023-03-14T02:27:40;8.10;99.90
18043;DHT22;9146;48.074;11.968;2023-03-14T02:30:10;8.10;99.90
18043;DHT22;9146;48.074;11.968;2023-03-14T02:32:40;8.10;99.90
18043;DHT22;9146;48.074;11.968;2023-03-14T02:35:10;8.10;99.90
18043;DHT22;9146;48.074;11.968;2023-03-14T02:37:41;8.10;99.90
18043;DHT22;9146;48.074;11.968;2023-03-14T02:40:10;8.10;99.90
18043;DHT22;9146;48.074;11.968;2023-03-14T02:42:37;8.10;99.90
18043;DHT22;9146;48.074;11.968;2023-03-14T02:48:14;8.00;99.90
18043;DHT22;9146;48.074;11.968;2023-03-14T02:50:43;7.90;99.90
18043;DHT22;9146;48.074;11.968;2023-03-14T02:53:14;7.90;99.90
18043;DHT22;9146;48.074;11.968;2023-03-14T02:55:45;7.80;99.90
18043;DHT22;9146;48.074;11.968;2023-03-14T02:58:12;7.70;99.90
18043;DHT22;9146;48.074;11.968;2023-03-14T03:00:40;7.70;99.90
18043;DHT22;9146;48.074;11.968;2023-03-14T03:03:08;7.60;99.90
18043;DHT22;9146;48.074;11.968;2023-03-14T03:05:35;7.60;99.90
18043;DHT22;9146;48.074;11.968;2023-03-14T03:08:02;7.50;99.90
18043;DHT22;9146;48.074;11.968;2023-03-14T03:10:30;7.40;99.90
18043;DHT22;9146;48.074;11.968;2023-03-14T03:12:57;7.40;99.90
18043;DHT22;9146;48.074;11.968;2023-03-14T03:15:24;7.30;99.90
18043;DHT22;9146;48.074;11.968;2023-03-14T03:17:51;7.30;99.90
18043;DHT22;9146;48.074;11.968;2023-03-14T03:20:19;7.20;99.90
18043;DHT22;9146;48.074;11.968;2023-03-14T03:22:46;7.20;99.90
18043;DHT22;9146;48.074;11.968;2023-03-14T03:25:15;7.20;99.90
18043;DHT22;9146;48.074;11.968;2023-03-14T03:27:42;7.20;99.90
18043;DHT22;9146;48.074;11.968;2023-03-14T03:30:10;7.10;99.90
18043;DHT22;9146;48.074;11.968;2023-03-14T03:32:37;7.10;99.90
18043;DHT22;9146;48.074;11.968;2023-03-14T03:35:05;7.10;99.90
18043;DHT22;9146;48.074;11.968;2023-03-14T03:37:34;7.10;99.90
18043;DHT22;9146;48.074;11.968;2023-03-14T03:40:02;7.10;99.90
18043;DHT22;9146;48.074;11.968;2023-03-14T03:42:31;7.10;99.90
18043;DHT22;9146;48.074;11.968;2023-03-14T03:44:59;7.10;99.90
18043;DHT22;9146;48.074;11.968;2023-03-14T03:47:26;7.00;99.90
18043;DHT22;9146;48.074;11.968;2023-03-14T03:49:53;7.10;99.90
18043;DHT22;9146;48.074;11.968;2023-03-14T03:52:20;7.00;99.90
18043;DHT22;9146;48.074;11.968;2023-03-14T03:54:48;7.00;99.90
18043;DHT22;9146;48.074;11.968;2023-03-14T03:57:15;7.00;99.90
18043;DHT22;9146;48.074;11.968;2023-03-14T03:59:42;7.00;99.90
18043;DHT22;9146;48.074;11.968;2023-03-14T04:02:09;7.00;99.90
18043;DHT22;9146;48.074;11.968;2023-03-14T04:04:36;7.00;99.90
18043;DHT22;9146;48.074;11.968;2023-03-14T04:07:04;7.00;99.90
18043;DHT22;9146;48.074;11.968;2023-03-14T04:09:31;6.90;99.90
18043;DHT22;9146;48.074;11.968;2023-03-14T04:12:00;6.90;99.90
18043;DHT22;9146;48.074;11.968;2023-03-14T04:14:27;6.90;99.90
18043;DHT22;9146;48.074;11.968;2023-03-14T04:16:54;6.90;99.90
18043;DHT22;9146;48.074;11.968;2023-03-14T04:19:21;6.90;99.90
18043;DHT22;9146;48.074;11.968;2023-03-14T04:21:48;6.80;99.90
18043;DHT22;9146;48.074;11.968;2023-03-14T04:24:15;6.80;99.90
18043;DHT22;9146;48.074;11.968;2023-03-14T04:26:42;6.90;99.90
18043;DHT22;9146;48.074;11.968;2023-03-14T04:29:10;6.80;99.90
18043;DHT22;9146;48.074;11.968;2023-03-14T04:31:37;6.70;99.90
18043;DHT22;9146;48.074;11.968;2023-03-14T04:34:04;6.80;99.90
18043;DHT22;9146;48.074;11.968;2023-03-14T04:36:31;6.70;99.90
18043;DHT22;9146;48.074;11.968;2023-03-14T04:38:58;6.70;99.90
18043;DHT22;9146;48.074;11.968;2023-03-14T04:41:25;6.80;99.90
18043;DHT22;9146;48.074;11.968;2023-03-14T04:43:52;6.70;99.90
18043;DHT22;9146;48.074;11.968;2023-03-14T04:46:20;6.70;99.90
18043;DHT22;9146;48.074;11.968;2023-03-14T04:48:47;6.70;99.90
18043;DHT22;9146;48.074;11.968;2023-03-14T04:51:14;6.60;99.90
18043;DHT22;9146;48.074;11.968;2023-03-14T04:53:41;6.60;99.90
18043;DHT22;9146;48.074;11.968;2023-03-14T04:56:08;6.60;99.90
18043;DHT22;9146;48.074;11.968;2023-03-14T04:58:35;6.60;99.90
18043;DHT22;9146;48.074;11.968;2023-03-14T05:01:03;6.50;99.90
18043;DHT22;9146;48.074;11.968;2023-03-14T05:03:31;6.50;99.90
18043;DHT22;9146;48.074;11.968;2023-03-14T05:05:59;6.50;99.90
18043;DHT22;9146;48.074;11.968;2023-03-14T05:08:26;6.50;99.90
18043;DHT22;9146;48.074;11.968;2023-03-14T05:10:53;6.50;99.90
18043;DHT22;9146;48.074;11.968;2023-03-14T05:13:20;6.40;99.90
18043;DHT22;9146;48.074;11.968;2023-03-14T05:15:47;6.40;99.90
18043;DHT22;9146;48.074;11.968;2023-03-14T05:18:16;6.40;99.90
18043;DHT22;9146;48.074;11.968;2023-03-14T05:20:44;6.40;99.90
18043;DHT22;9146;48.074;11.968;2023-03-14T05:23:11;6.40;99.90
18043;DHT22;9146;48.074;11.968;2023-03-14T05:25:38;6.40;99.90
18043;DHT22;9146;48.074;11.968;2023-03-14T05:28:05;6.30;99.90
18043;DHT22;9146;48.074;11.968;2023-03-14T05:30:32;6.30;99.90
18043;DHT22;9146;48.074;11.968;2023-03-14T05:32:59;6.30;99.90
18043;DHT22;9146;48.074;11.968;2023-03-14T05:35:26;6.30;99.90
18043;DHT22;9146;48.074;11.968;2023-03-14T05:37:54;6.30;99.90
18043;DHT22;9146;48.074;11.968;2023-03-14T05:40:22;6.20;99.90
18043;DHT22;9146;48.074;11.968;2023-03-14T05:42:48;6.30;99.90
18043;DHT22;9146;48.074;11.968;2023-03-14T05:45:15;6.20;99.90
18043;DHT22;9146;48.074;11.968;2023-03-14T05:47:42;6.20;99.90
18043;DHT22;9146;48.074;11.968;2023-03-14T05:50:10;6.20;99.90
18043;DHT22;9146;48.074;11.968;2023-03-14T05:52:37;6.20;99.90
18043;DHT22;9146;48.074;11.968;2023-03-14T05:55:06;6.20;99.90
18043;DHT22;9146;48.074;11.968;2023-03-14T05:57:33;6.20;99.90
18043;DHT22;9146;48.074;11.968;2023-03-14T06:00:00;6.20;99.90
18043;DHT22;9146;48.074;11.968;2023-03-14T06:02:27;6.20;99.90
18043;DHT22;9146;48.074;11.968;2023-03-14T06:04:54;6.20;99.90
18043;DHT22;9146;48.074;11.968;2023-03-14T06:07:21;6.30;99.90
18043;DHT22;9146;48.074;11.968;2023-03-14T06:09:48;6.30;99.90
18043;DHT22;9146;48.074;11.968;2023-03-14T06:12:17;6.30;99.90
18043;DHT22;9146;48.074;11.968;2023-03-14T06:14:44;6.30;99.90
18043;DHT22;9146;48.074;11.968;2023-03-14T06:17:11;6.30;99.90
18043;DHT22;9146;48.074;11.968;2023-03-14T06:19:38;6.30;99.90
18043;DHT22;9146;48.074;11.968;2023-03-14T06:22:05;6.30;99.90
18043;DHT22;9146;48.074;11.968;2023-03-14T06:24:32;6.30;99.90
18043;DHT22;9146;48.074;11.968;2023-03-14T06:26:59;6.30;99.90
18043;DHT22;9146;48.074;11.968;2023-03-14T06:29:29;6.30;99.90
18043;DHT22;9146;48.074;11.968;2023-03-14T06:31:56;6.30;99.90
18043;DHT22;9146;48.074;11.968;2023-03-14T06:34:23;6.40;99.90
18043;DHT22;9146;48.074;11.968;2023-03-14T06:36:51;6.40;99.90
18043;DHT22;9146;48.074;11.968;2023-03-14T06:39:18;6.40;99.90
18043;DHT22;9146;48.074;11.968;2023-03-14T06:41:45;6.40;99.90
18043;DHT22;9146;48.074;11.968;2023-03-14T06:44:12;6.40;99.90
18043;DHT22;9146;48.074;11.968;2023-03-14T06:46:40;6.50;99.90
18043;DHT22;9146;48.074;11.968;2023-03-14T06:49:07;6.50;99.90
18043;DHT22;9146;48.074;11.968;2023-03-14T06:51:34;6.50;99.90
18043;DHT22;9146;48.074;11.968;2023-03-14T06:54:01;6.60;99.90
18043;DHT22;9146;48.074;11.968;2023-03-14T06:56:28;6.60;99.90
18043;DHT22;9146;48.074;11.968;2023-03-14T06:58:55;6.60;99.90
18043;DHT22;9146;48.074;11.968;2023-03-14T07:01:24;6.70;99.90
18043;DHT22;9146;48.074;11.968;2023-03-14T07:03:53;6.70;99.90
18043;DHT22;9146;48.074;11.968;2023-03-14T07:06:20;6.80;99.90
18043;DHT22;9146;48.074;11.968;2023-03-14T07:08:48;6.80;99.90
18043;DHT22;9146;48.074;11.968;2023-03-14T07:11:15;6.80;99.90
18043;DHT22;9146;48.074;11.968;2023-03-14T07:13:41;6.80;99.90
18043;DHT22;9146;48.074;11.968;2023-03-14T07:16:09;6.80;99.90
18043;DHT22;9146;48.074;11.968;2023-03-14T07:18:36;6.80;99.90
18043;DHT22;9146;48.074;11.968;2023-03-14T07:21:05;6.80;99.90
18043;DHT22;9146;48.074;11.968;2023-03-14T07:23:33;6.70;99.90
18043;DHT22;9146;48.074;11.968;2023-03-14T07:26:00;6.80;99.90
18043;DHT22;9146;48.074;11.968;2023-03-14T07:28:27;6.80;99.90
18043;DHT22;9146;48.074;11.968;2023-03-14T07:30:54;6.80;99.90
18043;DHT22;9146;48.074;11.968;2023-03-14T07:33:22;6.80;99.90
18043;DHT22;9146;48.074;11.968;2023-03-14T07:35:49;6.80;99.90
18043;DHT22;9146;48.074;11.968;2023-03-14T07:38:18;6.80;99.90
18043;DHT22;9146;48.074;11.968;2023-03-14T07:40:45;6.80;99.90
18043;DHT22;9146;48.074;11.968;2023-03-14T07:43:12;6.80;99.90
18043;DHT22;9146;48.074;11.968;2023-03-14T07:45:39;6.90;99.90
18043;DHT22;9146;48.074;11.968;2023-03-14T07:48:06;6.90;99.90
18043;DHT22;9146;48.074;11.968;2023-03-14T07:50:33;6.90;99.90
18043;DHT22;9146;48.074;11.968;2023-03-14T07:53:00;7.00;99.90
18043;DHT22;9146;48.074;11.968;2023-03-14T07:55:28;7.10;99.90
18043;DHT22;9146;48.074;11.968;2023-03-14T07:57:55;7.10;99.90
18043;DHT22;9146;48.074;11.968;2023-03-14T08:00:22;7.20;99.90
18043;DHT22;9146;48.074;11.968;2023-03-14T08:02:49;7.30;99.90
18043;DHT22;9146;48.074;11.968;2023-03-14T08:05:16;7.40;99.90
18043;DHT22;9146;48.074;11.968;2023-03-14T08:07:43;7.50;99.90
18043;DHT22;9146;48.074;11.968;2023-03-14T08:10:11;7.60;99.90
18043;DHT22;9146;48.074;11.968;2023-03-14T08:12:42;7.70;99.90
18043;DHT22;9146;48.074;11.968;2023-03-14T08:15:10;7.70;99.90
18043;DHT22;9146;48.074;11.968;2023-03-14T08:17:37;7.80;99.90
18043;DHT22;9146;48.074;11.968;2023-03-14T08:20:04;7.80;99.90
18043;DHT22;9146;48.074;11.968;2023-03-14T08:22:34;7.90;99.90
18043;DHT22;9146;48.074;11.968;2023-03-14T08:25:01;8.00;99.90
18043;DHT22;9146;48.074;11.968;2023-03-14T08:27:28;8.00;99.90
18043;DHT22;9146;48.074;11.968;2023-03-14T08:29:57;8.00;99.90
18043;DHT22;9146;48.074;11.968;2023-03-14T08:32:24;8.00;99.90
18043;DHT22;9146;48.074;11.968;2023-03-14T08:34:51;8.00;99.90
18043;DHT22;9146;48.074;11.968;2023-03-14T08:37:18;8.00;99.90
18043;DHT22;9146;48.074;11.968;2023-03-14T08:39:45;8.10;99.90
18043;DHT22;9146;48.074;11.968;2023-03-14T08:42:12;8.10;99.90
18043;DHT22;9146;48.074;11.968;2023-03-14T08:44:39;8.20;99.90
18043;DHT22;9146;48.074;11.968;2023-03-14T08:47:08;8.20;99.90
18043;DHT22;9146;48.074;11.968;2023-03-14T08:49:35;8.20;99.90
18043;DHT22;9146;48.074;11.968;2023-03-14T08:52:02;8.20;99.90
18043;DHT22;9146;48.074;11.968;2023-03-14T08:54:30;8.30;99.90
18043;DHT22;9146;48.074;11.968;2023-03-14T08:56:57;8.30;99.90
18043;DHT22;9146;48.074;11.968;2023-03-14T08:59:24;8.40;99.90
18043;DHT22;9146;48.074;11.968;2023-03-14T09:01:51;8.40;99.90
18043;DHT22;9146;48.074;11.968;2023-03-14T09:04:20;8.40;99.90
18043;DHT22;9146;48.074;11.968;2023-03-14T09:06:47;8.40;99.90
18043;DHT22;9146;48.074;11.968;2023-03-14T09:09:14;8.40;99.90
18043;DHT22;9146;48.074;11.968;2023-03-14T09:11:41;8.30;99.90
18043;DHT22;9146;48.074;11.968;2023-03-14T09:14:08;8.30;99.90
18043;DHT22;9146;48.074;11.968;2023-03-14T09:16:35;8.20;99.90
18043;DHT22;9146;48.074;11.968;2023-03-14T09:19:02;8.00;99.90
18043;DHT22;9146;48.074;11.968;2023-03-14T09:21:31;8.00;99.90
18043;DHT22;9146;48.074;11.968;2023-03-14T09:23:58;8.00;99.90
18043;DHT22;9146;48.074;11.968;2023-03-14T09:26:25;7.90;99.90
18043;DHT22;9146;48.074;11.968;2023-03-14T09:28:52;7.90;99.90
18043;DHT22;9146;48.074;11.968;2023-03-14T09:31:19;7.90;99.90
18043;DHT22;9146;48.074;11.968;2023-03-14T09:33:46;8.00;99.90
18043;DHT22;9146;48.074;11.968;2023-03-14T09:36:13;7.90;99.90
18043;DHT22;9146;48.074;11.968;2023-03-14T09:38:41;7.90;99.90
18043;DHT22;9146;48.074;11.968;2023-03-14T09:41:15;7.90;99.90
18043;DHT22;9146;48.074;11.968;2023-03-14T09:43:44;7.90;99.90
18043;DHT22;9146;48.074;11.968;2023-03-14T09:46:12;7.90;99.90
18043;DHT22;9146;48.074;11.968;2023-03-14T09:48:40;8.00;99.90
18043;DHT22;9146;48.074;11.968;2023-03-14T09:51:13;8.00;99.90
18043;DHT22;9146;48.074;11.968;2023-03-14T09:53:44;7.90;99.90
18043;DHT22;9146;48.074;11.968;2023-03-14T09:56:14;7.90;99.90
18043;DHT22;9146;48.074;11.968;2023-03-14T09:58:47;7.90;99.90
18043;DHT22;9146;48.074;11.968;2023-03-14T10:01:18;7.90;99.90
18043;DHT22;9146;48.074;11.968;2023-03-14T10:03:47;8.00;99.90
18043;DHT22;9146;48.074;11.968;2023-03-14T10:06:15;8.00;99.90
18043;DHT22;9146;48.074;11.968;2023-03-14T10:08:44;8.00;99.90
18043;DHT22;9146;48.074;11.968;2023-03-14T10:11:15;8.10;99.90
18043;DHT22;9146;48.074;11.968;2023-03-14T10:14:01;8.00;99.90
18043;DHT22;9146;48.074;11.968;2023-03-14T10:16:30;8.00;99.90
18043;DHT22;9146;48.074;11.968;2023-03-14T10:19:06;8.00;99.90
18043;DHT22;9146;48.074;11.968;2023-03-14T10:21:36;8.10;99.90
18043;DHT22;9146;48.074;11.968;2023-03-14T10:24:10;8.20;99.90
18043;DHT22;9146;48.074;11.968;2023-03-14T10:26:44;8.30;99.90
18043;DHT22;9146;48.074;11.968;2023-03-14T10:29:14;8.40;99.90
18043;DHT22;9146;48.074;11.968;2023-03-14T10:31:51;8.50;99.90
18043;DHT22;9146;48.074;11.968;2023-03-14T10:34:23;8.60;99.90
18043;DHT22;9146;48.074;11.968;2023-03-14T10:36:55;8.80;99.90
18043;DHT22;9146;48.074;11.968;2023-03-14T10:39:36;8.90;99.90
18043;DHT22;9146;48.074;11.968;2023-03-14T10:42:13;9.00;99.90
18043;DHT22;9146;48.074;11.968;2023-03-14T10:44:41;9.10;99.90
18043;DHT22;9146;48.074;11.968;2023-03-14T10:47:16;9.20;99.90
18043;DHT22;9146;48.074;11.968;2023-03-14T10:49:44;9.40;99.90
18043;DHT22;9146;48.074;11.968;2023-03-14T10:52:19;9.60;99.90
18043;DHT22;9146;48.074;11.968;2023-03-14T10:54:54;9.80;99.90
18043;DHT22;9146;48.074;11.968;2023-03-14T10:57:21;10.10;99.90
18043;DHT22;9146;48.074;11.968;2023-03-14T10:59:48;10.40;99.90
18043;DHT22;9146;48.074;11.968;2023-03-14T11:02:34;10.70;99.90
18043;DHT22;9146;48.074;11.968;2023-03-14T11:05:14;11.00;99.90
18043;DHT22;9146;48.074;11.968;2023-03-14T11:07:43;11.40;99.90
18043;DHT22;9146;48.074;11.968;2023-03-14T11:10:19;11.60;99.90
18043;DHT22;9146;48.074;11.968;2023-03-14T11:12:58;11.80;99.90
18043;DHT22;9146;48.074;11.968;2023-03-14T11:15:31;11.90;99.90
18043;DHT22;9146;48.074;11.968;2023-03-14T11:20:53;12.50;99.90
18043;DHT22;9146;48.074;11.968;2023-03-14T11:23:22;12.50;99.90
18043;DHT22;9146;48.074;11.968;2023-03-14T11:25:57;12.50;99.90
18043;DHT22;9146;48.074;11.968;2023-03-14T11:28:30;12.60;99.90
18043;DHT22;9146;48.074;11.968;2023-03-14T11:31:08;12.70;99.90
18043;DHT22;9146;48.074;11.968;2023-03-14T11:33:47;12.80;99.90
18043;DHT22;9146;48.074;11.968;2023-03-14T11:36:20;12.90;99.90
18043;DHT22;9146;48.074;11.968;2023-03-14T11:38:49;12.90;99.90
18043;DHT22;9146;48.074;11.968;2023-03-14T11:41:19;12.90;99.90
18043;DHT22;9146;48.074;11.968;2023-03-14T11:43:48;12.80;99.90
18043;DHT22;9146;48.074;11.968;2023-03-14T11:46:18;12.70;99.90
18043;DHT22;9146;48.074;11.968;2023-03-14T11:48:55;12.60;99.90
18043;DHT22;9146;48.074;11.968;2023-03-14T11:51:25;12.50;99.90
18043;DHT22;9146;48.074;11.968;2023-03-14T11:54:00;12.60;99.90
18043;DHT22;9146;48.074;11.968;2023-03-14T11:56:34;12.60;99.90
18043;DHT22;9146;48.074;11.968;2023-03-14T11:59:04;12.70;99.90
18043;DHT22;9146;48.074;11.968;2023-03-14T12:01:44;12.80;99.90
18043;DHT22;9146;48.074;11.968;2023-03-14T12:04:29;13.10;99.90
18043;DHT22;9146;48.074;11.968;2023-03-14T12:07:02;13.20;99.90
18043;DHT22;9146;48.074;11.968;2023-03-14T12:09:30;13.40;99.90
18043;DHT22;9146;48.074;11.968;2023-03-14T12:12:00;13.50;99.90
18043;DHT22;9146;48.074;11.968;2023-03-14T12:14:29;13.60;99.90
18043;DHT22;9146;48.074;11.968;2023-03-14T12:16:57;13.60;99.90
18043;DHT22;9146;48.074;11.968;2023-03-14T12:19:33;13.60;99.90
18043;DHT22;9146;48.074;11.968;2023-03-14T12:22:07;13.40;99.90
18043;DHT22;9146;48.074;11.968;2023-03-14T12:24:37;13.20;99.90
18043;DHT22;9146;48.074;11.968;2023-03-14T12:27:10;12.90;99.90
18043;DHT22;9146;48.074;11.968;2023-03-14T12:29:59;12.80;99.90
18043;DHT22;9146;48.074;11.968;2023-03-14T12:32:27;12.80;99.90
18043;DHT22;9146;48.074;11.968;2023-03-14T12:34:54;12.80;99.90
18043;DHT22;9146;48.074;11.968;2023-03-14T12:37:28;12.90;99.90
18043;DHT22;9146;48.074;11.968;2023-03-14T12:40:16;13.10;99.90
18043;DHT22;9146;48.074;11.968;2023-03-14T12:42:57;13.30;99.90
18043;DHT22;9146;48.074;11.968;2023-03-14T12:45:27;13.40;99.90
18043;DHT22;9146;48.074;11.968;2023-03-14T12:48:09;13.50;99.90
18043;DHT22;9146;48.074;11.968;2023-03-14T12:50:42;13.50;99.90
18043;DHT22;9146;48.074;11.968;2023-03-14T12:56:38;13.50;99.90
18043;DHT22;9146;48.074;11.968;2023-03-14T12:59:22;13.30;99.90
18043;DHT22;9146;48.074;11.968;2023-03-14T13:01:56;13.20;99.90
18043;DHT22;9146;48.074;11.968;2023-03-14T13:04:28;13.20;99.90
18043;DHT22;9146;48.074;11.968;2023-03-14T13:06:57;13.30;99.90
18043;DHT22;9146;48.074;11.968;2023-03-14T13:12:27;13.20;99.90
18043;DHT22;9146;48.074;11.968;2023-03-14T13:15:00;13.10;99.90
18043;DHT22;9146;48.074;11.968;2023-03-14T13:17:33;13.00;99.90
18043;DHT22;9146;48.074;11.968;2023-03-14T13:20:03;12.90;99.90
18043;DHT22;9146;48.074;11.968;2023-03-14T13:22:33;12.90;99.90
18043;DHT22;9146;48.074;11.968;2023-03-14T13:25:04;12.80;99.90
18043;DHT22;9146;48.074;11.968;2023-03-14T13:27:34;12.80;99.90
18043;DHT22;9146;48.074;11.968;2023-03-14T13:30:20;12.80;99.90
18043;DHT22;9146;48.074;11.968;2023-03-14T13:32:49;12.70;99.90
18043;DHT22;9146;48.074;11.968;2023-03-14T13:35:18;12.60;99.90
18043;DHT22;9146;48.074;11.968;2023-03-14T13:37:46;12.60;99.90
18043;DHT22;9146;48.074;11.968;2023-03-14T13:40:23;12.40;99.90
18043;DHT22;9146;48.074;11.968;2023-03-14T13:43:01;12.20;99.90
18043;DHT22;9146;48.074;11.968;2023-03-14T13:45:30;12.00;99.90
18043;DHT22;9146;48.074;11.968;2023-03-14T13:47:57;11.80;99.90
18043;DHT22;9146;48.074;11.968;2023-03-14T13:50:24;11.60;99.90
18043;DHT22;9146;48.074;11.968;2023-03-14T13:52:55;11.50;99.90
18043;DHT22;9146;48.074;11.968;2023-03-14T13:55:23;11.40;99.90
18043;DHT22;9146;48.074;11.968;2023-03-14T13:57:53;11.30;99.90
18043;DHT22;9146;48.074;11.968;2023-03-14T14:00:22;11.20;99.90
18043;DHT22;9146;48.074;11.968;2023-03-14T14:02:54;11.20;99.90
18043;DHT22;9146;48.074;11.968;2023-03-14T14:05:22;11.20;99.90
18043;DHT22;9146;48.074;11.968;2023-03-14T14:07:50;11.20;99.90
18043;DHT22;9146;48.074;11.968;2023-03-14T14:10:18;11.00;99.90
18043;DHT22;9146;48.074;11.968;2023-03-14T14:12:48;10.80;99.90
18043;DHT22;9146;48.074;11.968;2023-03-14T14:15:19;10.40;99.90
18043;DHT22;9146;48.074;11.968;2023-03-14T14:17:50;10.10;99.90
18043;DHT22;9146;48.074;11.968;2023-03-14T14:20:26;9.80;99.90
18043;DHT22;9146;48.074;11.968;2023-03-14T14:22:58;9.60;99.90
18043;DHT22;9146;48.074;11.968;2023-03-14T14:25:25;9.40;99.90
18043;DHT22;9146;48.074;11.968;2023-03-14T14:27:52;9.30;99.90
18043;DHT22;9146;48.074;11.968;2023-03-14T14:30:31;9.00;99.90
18043;DHT22;9146;48.074;11.968;2023-03-14T14:33:15;8.80;99.90
18043;DHT22;9146;48.074;11.968;2023-03-14T14:35:51;8.60;99.90
18043;DHT22;9146;48.074;11.968;2023-03-14T14:38:19;8.40;99.90
18043;DHT22;9146;48.074;11.968;2023-03-14T14:40:50;8.30;99.90
18043;DHT22;9146;48.074;11.968;2023-03-14T14:43:21;8.20;99.90
18043;DHT22;9146;48.074;11.968;2023-03-14T14:45:50;8.10;99.90
18043;DHT22;9146;48.074;11.968;2023-03-14T14:48:21;8.10;99.90
18043;DHT22;9146;48.074;11.968;2023-03-14T14:50:59;8.00;99.90
18043;DHT22;9146;48.074;11.968;2023-03-14T14:53:30;7.90;99.90
18043;DHT22;9146;48.074;11.968;2023-03-14T14:55:59;7.70;99.90
18043;DHT22;9146;48.074;11.968;2023-03-14T14:58:33;7.60;99.90
18043;DHT22;9146;48.074;11.968;2023-03-14T15:01:04;7.50;99.90
18043;DHT22;9146;48.074;11.968;2023-03-14T15:03:33;7.30;99.90
18043;DHT22;9146;48.074;11.968;2023-03-14T15:06:03;7.10;99.90
18043;DHT22;9146;48.074;11.968;2023-03-14T15:08:30;7.00;99.90
18043;DHT22;9146;48.074;11.968;2023-03-14T15:10:57;6.90;99.90
18043;DHT22;9146;48.074;11.968;2023-03-14T15:13:24;6.70;99.90
18043;DHT22;9146;48.074;11.968;2023-03-14T15:15:52;6.60;99.90
18043;DHT22;9146;48.074;11.968;2023-03-14T15:18:22;6.50;99.90
18043;DHT22;9146;48.074;11.968;2023-03-14T15:20:49;6.40;99.90
18043;DHT22;9146;48.074;11.968;2023-03-14T15:23:19;6.40;99.90
18043;DHT22;9146;48.074;11.968;2023-03-14T15:25:47;6.30;99.90
18043;DHT22;9146;48.074;11.968;2023-03-14T15:28:16;6.30;99.90
18043;DHT22;9146;48.074;11.968;2023-03-14T15:30:45;6.20;99.90
18043;DHT22;9146;48.074;11.968;2023-03-14T15:33:13;6.10;99.90
18043;DHT22;9146;48.074;11.968;2023-03-14T15:35:39;6.10;99.90
18043;DHT22;9146;48.074;11.968;2023-03-14T15:38:10;6.20;99.90
18043;DHT22;9146;48.074;11.968;2023-03-14T15:40:39;6.20;99.90
18043;DHT22;9146;48.074;11.968;2023-03-14T15:43:06;6.20;99.90
18043;DHT22;9146;48.074;11.968;2023-03-14T15:45:33;6.20;99.90
18043;DHT22;9146;48.074;11.968;2023-03-14T15:47:59;6.20;99.90
18043;DHT22;9146;48.074;11.968;2023-03-14T15:50:27;6.20;99.90
18043;DHT22;9146;48.074;11.968;2023-03-14T15:52:54;6.20;99.90
18043;DHT22;9146;48.074;11.968;2023-03-14T15:55:21;6.20;99.90
18043;DHT22;9146;48.074;11.968;2023-03-14T15:57:50;6.20;99.90
18043;DHT22;9146;48.074;11.968;2023-03-14T16:00:19;6.20;99.90
18043;DHT22;9146;48.074;11.968;2023-03-14T16:02:47;6.20;99.90
18043;DHT22;9146;48.074;11.968;2023-03-14T16:05:14;6.20;99.90
18043;DHT22;9146;48.074;11.968;2023-03-14T16:07:42;6.30;99.90